sensor_id;sensor_type;location;lat;lon;timestamp;temperature;humidity
42031;DHT22;27709;52.036;5.906;2023-02-02T00:00:35;7.90;99.90
42031;DHT22;27709;52.036;5.906;2023-02-02T00:03:01;7.90;99.90
42031;DHT22;27709;52.036;5.906;2023-02-02T00:05:26;8.00;99.90
42031;DHT22;27709;52.036;5.906;2023-02-02T00:07:53;8.00;99.90
42031;DHT22;27709;52.036;5.906;2023-02-02T00:10:21;8.00;99.90
42031;DHT22;27709;52.036;5.906;2023-02-02T00:12:53;8.00;99.90
42031;DHT22;27709;52.036;5.906;2023-02-02T00:15:23;8.00;99.90
42031;DHT22;27709;52.036;5.906;2023-02-02T00:17:51;8.00;99.90
42031;DHT22;27709;52.036;5.906;2023-02-02T00:20:23;8.00;99.90
42031;DHT22;27709;52.036;5.906;2023-02-02T00:22:54;8.00;99.90
42031;DHT22;27709;52.036;5.906;2023-02-02T00:25:20;8.00;99.90
42031;DHT22;27709;52.036;5.906;2023-02-02T00:28:11;8.00;99.90
42031;DHT22;27709;52.036;5.906;2023-02-02T00:30:41;8.00;99.90
42031;DHT22;27709;52.036;5.906;2023-02-02T00:33:06;8.00;99.90
42031;DHT22;27709;52.036;5.906;2023-02-02T00:35:42;8.00;99.90
42031;DHT22;27709;52.036;5.906;2023-02-02T00:38:07;8.00;99.90
42031;DHT22;27709;52.036;5.906;2023-02-02T00:40:33;8.00;99.90
42031;DHT22;27709;52.036;5.906;2023-02-02T00:43:02;8.00;99.90
42031;DHT22;27709;52.036;5.906;2023-02-02T00:45:30;8.00;99.90
42031;DHT22;27709;52.036;5.906;2023-02-02T00:47:55;8.00;99.90
42031;DHT22;27709;52.036;5.906;2023-02-02T00:50:28;8.00;99.90
42031;DHT22;27709;52.036;5.906;2023-02-02T00:52:56;8.00;99.90
42031;DHT22;27709;52.036;5.906;2023-02-02T00:55:26;8.00;99.90
42031;DHT22;27709;52.036;5.906;2023-02-02T00:57:52;8.00;99.90
42031;DHT22;27709;52.036;5.906;2023-02-02T01:00:24;7.90;99.90
42031;DHT22;27709;52.036;5.906;2023-02-02T01:02:51;7.90;99.90
42031;DHT22;27709;52.036;5.906;2023-02-02T01:05:17;7.90;99.90
42031;DHT22;27709;52.036;5.906;2023-02-02T01:07:43;7.80;99.90
42031;DHT22;27709;52.036;5.906;2023-02-02T01:10:14;7.80;99.90
42031;DHT22;27709;52.036;5.906;2023-02-02T01:12:40;7.80;99.90
42031;DHT22;27709;52.036;5.906;2023-02-02T01:15:07;7.80;99.90
42031;DHT22;27709;52.036;5.906;2023-02-02T01:17:32;7.80;99.90
42031;DHT22;27709;52.036;5.906;2023-02-02T01:19:58;7.80;99.90
42031;DHT22;27709;52.036;5.906;2023-02-02T01:22:24;7.80;99.90
42031;DHT22;27709;52.036;5.906;2023-02-02T01:24:50;7.80;99.90
42031;DHT22;27709;52.036;5.906;2023-02-02T01:27:16;7.80;99.90
42031;DHT22;27709;52.036;5.906;2023-02-02T01:29:53;7.80;99.90
42031;DHT22;27709;52.036;5.906;2023-02-02T01:32:19;7.80;99.90
42031;DHT22;27709;52.036;5.906;2023-02-02T01:34:44;7.80;99.90
42031;DHT22;27709;52.036;5.906;2023-02-02T01:37:13;7.80;99.90
42031;DHT22;27709;52.036;5.906;2023-02-02T01:39:38;7.90;99.90
42031;DHT22;27709;52.036;5.906;2023-02-02T01:42:12;7.90;99.90
42031;DHT22;27709;52.036;5.906;2023-02-02T01:47:49;7.90;99.90
42031;DHT22;27709;52.036;5.906;2023-02-02T01:50:20;7.90;99.90
42031;DHT22;27709;52.036;5.906;2023-02-02T01:53:03;7.90;99.90
42031;DHT22;27709;52.036;5.906;2023-02-02T01:55:33;7.90;99.90
42031;DHT22;27709;52.036;5.906;2023-02-02T01:58:05;7.90;99.90
42031;DHT22;27709;52.036;5.906;2023-02-02T02:00:32;7.90;99.90
42031;DHT22;27709;52.036;5.906;2023-02-02T02:03:01;7.90;99.90
42031;DHT22;27709;52.036;5.906;2023-02-02T02:05:35;7.90;99.90
42031;DHT22;27709;52.036;5.906;2023-02-02T02:08:22;7.90;99.90
42031;DHT22;27709;52.036;5.906;2023-02-02T02:10:48;7.90;99.90
42031;DHT22;27709;52.036;5.906;2023-02-02T02:13:15;7.80;99.90
42031;DHT22;27709;52.036;5.906;2023-02-02T02:22:18;7.80;99.90
42031;DHT22;27709;52.036;5.906;2023-02-02T02:25:12;7.90;99.90
42031;DHT22;27709;52.036;5.906;2023-02-02T02:31:01;7.90;99.90
42031;DHT22;27709;52.036;5.906;2023-02-02T02:39:11;7.80;99.90
42031;DHT22;27709;52.036;5.906;2023-02-02T02:41:42;7.70;99.90
42031;DHT22;27709;52.036;5.906;2023-02-02T02:44:11;7.80;99.90
42031;DHT22;27709;52.036;5.906;2023-02-02T02:46:41;7.80;99.90
42031;DHT22;27709;52.036;5.906;2023-02-02T02:51:54;7.80;99.90
42031;DHT22;27709;52.036;5.906;2023-02-02T02:54:36;7.80;99.90
42031;DHT22;27709;52.036;5.906;2023-02-02T03:01:02;7.70;99.90
42031;DHT22;27709;52.036;5.906;2023-02-02T03:04:00;7.60;99.90
42031;DHT22;27709;52.036;5.906;2023-02-02T03:06:49;7.70;99.90
42031;DHT22;27709;52.036;5.906;2023-02-02T03:09:23;7.60;99.90
42031;DHT22;27709;52.036;5.906;2023-02-02T03:11:52;7.70;99.90
42031;DHT22;27709;52.036;5.906;2023-02-02T03:14:22;7.70;99.90
42031;DHT22;27709;52.036;5.906;2023-02-02T03:16:50;7.70;99.90
42031;DHT22;27709;52.036;5.906;2023-02-02T03:19:17;7.70;99.90
42031;DHT22;27709;52.036;5.906;2023-02-02T03:21:43;7.70;99.90
42031;DHT22;27709;52.036;5.906;2023-02-02T03:24:21;7.70;99.90
42031;DHT22;27709;52.036;5.906;2023-02-02T03:26:51;7.70;99.90
42031;DHT22;27709;52.036;5.906;2023-02-02T03:29:39;7.70;99.90
42031;DHT22;27709;52.036;5.906;2023-02-02T03:32:12;7.80;99.90
42031;DHT22;27709;52.036;5.906;2023-02-02T03:34:41;7.80;99.90
42031;DHT22;27709;52.036;5.906;2023-02-02T03:37:06;7.80;99.90
42031;DHT22;27709;52.036;5.906;2023-02-02T03:39:32;7.80;99.90
42031;DHT22;27709;52.036;5.906;2023-02-02T03:41:57;7.80;99.90
42031;DHT22;27709;52.036;5.906;2023-02-02T03:44:26;7.90;99.90
42031;DHT22;27709;52.036;5.906;2023-02-02T03:46:55;7.90;99.90
42031;DHT22;27709;52.036;5.906;2023-02-02T03:49:42;7.90;99.90
42031;DHT22;27709;52.036;5.906;2023-02-02T03:52:07;7.90;99.90
42031;DHT22;27709;52.036;5.906;2023-02-02T03:54:32;7.90;99.90
42031;DHT22;27709;52.036;5.906;2023-02-02T03:56:58;7.90;99.90
42031;DHT22;27709;52.036;5.906;2023-02-02T03:59:24;7.90;99.90
42031;DHT22;27709;52.036;5.906;2023-02-02T04:01:49;8.00;99.90
42031;DHT22;27709;52.036;5.906;2023-02-02T04:04:36;8.00;99.90
42031;DHT22;27709;52.036;5.906;2023-02-02T04:07:02;8.00;99.90
42031;DHT22;27709;52.036;5.906;2023-02-02T04:09:30;8.00;99.90
42031;DHT22;27709;52.036;5.906;2023-02-02T04:11:58;8.00;99.90
42031;DHT22;27709;52.036;5.906;2023-02-02T04:14:24;8.00;99.90
42031;DHT22;27709;52.036;5.906;2023-02-02T04:16:50;8.00;99.90
42031;DHT22;27709;52.036;5.906;2023-02-02T04:19:15;8.00;99.90
42031;DHT22;27709;52.036;5.906;2023-02-02T04:21:41;8.00;99.90
42031;DHT22;27709;52.036;5.906;2023-02-02T04:24:14;8.00;99.90
42031;DHT22;27709;52.036;5.906;2023-02-02T04:26:45;8.00;99.90
42031;DHT22;27709;52.036;5.906;2023-02-02T04:29:17;8.00;99.90
42031;DHT22;27709;52.036;5.906;2023-02-02T04:31:45;8.00;99.90
42031;DHT22;27709;52.036;5.906;2023-02-02T04:34:14;8.10;99.90
42031;DHT22;27709;52.036;5.906;2023-02-02T04:36:40;8.10;99.90
42031;DHT22;27709;52.036;5.906;2023-02-02T04:39:05;8.10;99.90
42031;DHT22;27709;52.036;5.906;2023-02-02T04:41:33;8.10;99.90
42031;DHT22;27709;52.036;5.906;2023-02-02T04:43:59;8.10;99.90
42031;DHT22;27709;52.036;5.906;2023-02-02T04:46:24;8.10;99.90
42031;DHT22;27709;52.036;5.906;2023-02-02T04:48:50;8.10;99.90
42031;DHT22;27709;52.036;5.906;2023-02-02T04:51:20;8.10;99.90
42031;DHT22;27709;52.036;5.906;2023-02-02T04:53:48;8.10;99.90
42031;DHT22;27709;52.036;5.906;2023-02-02T04:56:16;8.20;99.90
42031;DHT22;27709;52.036;5.906;2023-02-02T04:58:43;8.20;99.90
42031;DHT22;27709;52.036;5.906;2023-02-02T05:01:12;8.20;99.90
42031;DHT22;27709;52.036;5.906;2023-02-02T05:03:39;8.20;99.90
42031;DHT22;27709;52.036;5.906;2023-02-02T05:06:05;8.20;99.90
42031;DHT22;27709;52.036;5.906;2023-02-02T05:08:30;8.20;99.90
42031;DHT22;27709;52.036;5.906;2023-02-02T05:10:56;8.20;99.90
42031;DHT22;27709;52.036;5.906;2023-02-02T05:13:22;8.20;99.90
42031;DHT22;27709;52.036;5.906;2023-02-02T05:15:48;8.30;99.90
42031;DHT22;27709;52.036;5.906;2023-02-02T05:18:13;8.30;99.90
42031;DHT22;27709;52.036;5.906;2023-02-02T05:20:40;8.30;99.90
42031;DHT22;27709;52.036;5.906;2023-02-02T05:23:07;8.30;99.90
42031;DHT22;27709;52.036;5.906;2023-02-02T05:25:32;8.20;99.90
42031;DHT22;27709;52.036;5.906;2023-02-02T05:27:58;8.30;99.90
42031;DHT22;27709;52.036;5.906;2023-02-02T05:30:24;8.30;99.90
42031;DHT22;27709;52.036;5.906;2023-02-02T05:32:49;8.20;99.90
42031;DHT22;27709;52.036;5.906;2023-02-02T05:35:15;8.30;99.90
42031;DHT22;27709;52.036;5.906;2023-02-02T05:37:43;8.30;99.90
42031;DHT22;27709;52.036;5.906;2023-02-02T05:40:10;8.30;99.90
42031;DHT22;27709;52.036;5.906;2023-02-02T05:42:38;8.30;99.90
42031;DHT22;27709;52.036;5.906;2023-02-02T05:45:04;8.40;99.90
42031;DHT22;27709;52.036;5.906;2023-02-02T05:47:30;8.40;99.90
42031;DHT22;27709;52.036;5.906;2023-02-02T05:49:55;8.40;99.90
42031;DHT22;27709;52.036;5.906;2023-02-02T05:52:22;8.40;99.90
42031;DHT22;27709;52.036;5.906;2023-02-02T05:54:49;8.50;99.90
42031;DHT22;27709;52.036;5.906;2023-02-02T05:57:15;8.50;99.90
42031;DHT22;27709;52.036;5.906;2023-02-02T05:59:43;8.50;99.90
42031;DHT22;27709;52.036;5.906;2023-02-02T06:02:08;8.50;99.90
42031;DHT22;27709;52.036;5.906;2023-02-02T06:04:34;8.50;99.90
42031;DHT22;27709;52.036;5.906;2023-02-02T06:06:59;8.50;99.90
42031;DHT22;27709;52.036;5.906;2023-02-02T06:09:25;8.50;99.90
42031;DHT22;27709;52.036;5.906;2023-02-02T06:11:50;8.50;99.90
42031;DHT22;27709;52.036;5.906;2023-02-02T06:14:16;8.50;99.90
42031;DHT22;27709;52.036;5.906;2023-02-02T06:16:41;8.60;99.90
42031;DHT22;27709;52.036;5.906;2023-02-02T06:19:12;8.60;99.90
42031;DHT22;27709;52.036;5.906;2023-02-02T06:21:40;8.60;99.90
42031;DHT22;27709;52.036;5.906;2023-02-02T06:24:15;8.60;99.90
42031;DHT22;27709;52.036;5.906;2023-02-02T06:26:51;8.60;99.90
42031;DHT22;27709;52.036;5.906;2023-02-02T06:29:17;8.60;99.90
42031;DHT22;27709;52.036;5.906;2023-02-02T06:31:43;8.60;99.90
42031;DHT22;27709;52.036;5.906;2023-02-02T06:34:10;8.60;99.90
42031;DHT22;27709;52.036;5.906;2023-02-02T06:36:39;8.60;99.90
42031;DHT22;27709;52.036;5.906;2023-02-02T06:39:05;8.60;99.90
42031;DHT22;27709;52.036;5.906;2023-02-02T06:41:36;8.50;99.90
42031;DHT22;27709;52.036;5.906;2023-02-02T06:44:02;8.50;99.90
42031;DHT22;27709;52.036;5.906;2023-02-02T06:46:27;8.50;99.90
42031;DHT22;27709;52.036;5.906;2023-02-02T06:48:53;8.50;99.90
42031;DHT22;27709;52.036;5.906;2023-02-02T06:51:22;8.50;99.90
42031;DHT22;27709;52.036;5.906;2023-02-02T06:53:47;8.50;99.90
42031;DHT22;27709;52.036;5.906;2023-02-02T06:56:19;8.50;99.90
42031;DHT22;27709;52.036;5.906;2023-02-02T06:58:44;8.50;99.90
42031;DHT22;27709;52.036;5.906;2023-02-02T07:01:13;8.50;99.90
42031;DHT22;27709;52.036;5.906;2023-02-02T07:03:39;8.50;99.90
42031;DHT22;27709;52.036;5.906;2023-02-02T07:06:13;8.50;99.90
42031;DHT22;27709;52.036;5.906;2023-02-02T07:08:40;8.50;99.90
42031;DHT22;27709;52.036;5.906;2023-02-02T07:11:08;8.50;99.90
42031;DHT22;27709;52.036;5.906;2023-02-02T07:13:34;8.50;99.90
42031;DHT22;27709;52.036;5.906;2023-02-02T07:16:02;8.50;99.90
42031;DHT22;27709;52.036;5.906;2023-02-02T07:18:29;8.50;99.90
42031;DHT22;27709;52.036;5.906;2023-02-02T07:20:57;8.50;99.90
42031;DHT22;27709;52.036;5.906;2023-02-02T07:23:23;8.50;99.90
42031;DHT22;27709;52.036;5.906;2023-02-02T07:25:53;8.50;99.90
42031;DHT22;27709;52.036;5.906;2023-02-02T07:28:26;8.50;99.90
42031;DHT22;27709;52.036;5.906;2023-02-02T07:30:52;8.50;99.90
42031;DHT22;27709;52.036;5.906;2023-02-02T07:33:17;8.50;99.90
42031;DHT22;27709;52.036;5.906;2023-02-02T07:35:43;8.50;99.90
42031;DHT22;27709;52.036;5.906;2023-02-02T07:38:08;8.50;99.90
42031;DHT22;27709;52.036;5.906;2023-02-02T07:40:34;8.50;99.90
42031;DHT22;27709;52.036;5.906;2023-02-02T07:42:59;8.50;99.90
42031;DHT22;27709;52.036;5.906;2023-02-02T07:45:26;8.50;99.90
42031;DHT22;27709;52.036;5.906;2023-02-02T07:47:58;8.50;99.90
42031;DHT22;27709;52.036;5.906;2023-02-02T07:50:25;8.50;99.90
42031;DHT22;27709;52.036;5.906;2023-02-02T07:52:53;8.50;99.90
42031;DHT22;27709;52.036;5.906;2023-02-02T07:55:19;8.50;99.90
42031;DHT22;27709;52.036;5.906;2023-02-02T07:57:45;8.50;99.90
42031;DHT22;27709;52.036;5.906;2023-02-02T08:00:11;8.60;99.90
42031;DHT22;27709;52.036;5.906;2023-02-02T08:02:37;8.50;99.90
42031;DHT22;27709;52.036;5.906;2023-02-02T08:05:02;8.60;99.90
42031;DHT22;27709;52.036;5.906;2023-02-02T08:07:29;8.60;99.90
42031;DHT22;27709;52.036;5.906;2023-02-02T08:09:56;8.60;99.90
42031;DHT22;27709;52.036;5.906;2023-02-02T08:12:23;8.60;99.90
42031;DHT22;27709;52.036;5.906;2023-02-02T08:14:50;8.60;99.90
42031;DHT22;27709;52.036;5.906;2023-02-02T08:17:17;8.60;99.90
42031;DHT22;27709;52.036;5.906;2023-02-02T08:19:44;8.60;99.90
42031;DHT22;27709;52.036;5.906;2023-02-02T08:22:11;8.60;99.90
42031;DHT22;27709;52.036;5.906;2023-02-02T08:24:36;8.50;99.90
42031;DHT22;27709;52.036;5.906;2023-02-02T08:27:06;8.50;99.90
42031;DHT22;27709;52.036;5.906;2023-02-02T08:29:34;8.50;99.90
42031;DHT22;27709;52.036;5.906;2023-02-02T08:32:01;8.60;99.90
42031;DHT22;27709;52.036;5.906;2023-02-02T08:34:27;8.60;99.90
42031;DHT22;27709;52.036;5.906;2023-02-02T08:36:52;8.60;99.90
42031;DHT22;27709;52.036;5.906;2023-02-02T08:39:18;8.60;99.90
42031;DHT22;27709;52.036;5.906;2023-02-02T08:41:43;8.70;99.90
42031;DHT22;27709;52.036;5.906;2023-02-02T08:44:14;8.60;99.90
42031;DHT22;27709;52.036;5.906;2023-02-02T08:46:40;8.60;99.90
42031;DHT22;27709;52.036;5.906;2023-02-02T08:49:06;8.70;99.90
42031;DHT22;27709;52.036;5.906;2023-02-02T08:51:34;8.70;99.90
42031;DHT22;27709;52.036;5.906;2023-02-02T08:54:00;8.70;99.90
42031;DHT22;27709;52.036;5.906;2023-02-02T08:56:26;8.70;99.90
42031;DHT22;27709;52.036;5.906;2023-02-02T08:58:53;8.70;99.90
42031;DHT22;27709;52.036;5.906;2023-02-02T09:01:26;8.80;99.90
42031;DHT22;27709;52.036;5.906;2023-02-02T09:03:55;8.80;99.90
42031;DHT22;27709;52.036;5.906;2023-02-02T09:06:27;8.90;99.90
42031;DHT22;27709;52.036;5.906;2023-02-02T09:08:54;8.90;99.90
42031;DHT22;27709;52.036;5.906;2023-02-02T09:11:21;8.90;99.90
42031;DHT22;27709;52.036;5.906;2023-02-02T09:13:52;8.90;99.90
42031;DHT22;27709;52.036;5.906;2023-02-02T09:16:19;8.90;99.90
42031;DHT22;27709;52.036;5.906;2023-02-02T09:18:46;8.90;99.90
42031;DHT22;27709;52.036;5.906;2023-02-02T09:21:14;9.00;99.90
42031;DHT22;27709;52.036;5.906;2023-02-02T09:23:41;9.00;99.90
42031;DHT22;27709;52.036;5.906;2023-02-02T09:28:48;9.10;99.90
42031;DHT22;27709;52.036;5.906;2023-02-02T09:31:15;9.10;99.90
42031;DHT22;27709;52.036;5.906;2023-02-02T09:33:43;9.10;99.90
42031;DHT22;27709;52.036;5.906;2023-02-02T09:36:21;9.10;99.90
42031;DHT22;27709;52.036;5.906;2023-02-02T09:38:50;9.10;99.90
42031;DHT22;27709;52.036;5.906;2023-02-02T09:47:14;9.00;99.90
42031;DHT22;27709;52.036;5.906;2023-02-02T09:52:29;9.10;99.90
42031;DHT22;27709;52.036;5.906;2023-02-02T09:57:42;9.10;99.90
42031;DHT22;27709;52.036;5.906;2023-02-02T10:00:36;9.10;99.90
42031;DHT22;27709;52.036;5.906;2023-02-02T10:03:13;9.10;99.90
42031;DHT22;27709;52.036;5.906;2023-02-02T10:05:52;9.10;99.90
42031;DHT22;27709;52.036;5.906;2023-02-02T10:08:47;9.10;99.90
42031;DHT22;27709;52.036;5.906;2023-02-02T10:11:32;9.20;99.90
42031;DHT22;27709;52.036;5.906;2023-02-02T10:14:12;9.20;99.90
42031;DHT22;27709;52.036;5.906;2023-02-02T10:16:40;9.20;99.90
42031;DHT22;27709;52.036;5.906;2023-02-02T10:19:30;9.20;99.90
42031;DHT22;27709;52.036;5.906;2023-02-02T10:22:14;9.30;99.90
42031;DHT22;27709;52.036;5.906;2023-02-02T10:24:42;9.30;99.90
42031;DHT22;27709;52.036;5.906;2023-02-02T10:27:23;9.30;99.90
42031;DHT22;27709;52.036;5.906;2023-02-02T10:30:00;9.40;99.90
42031;DHT22;27709;52.036;5.906;2023-02-02T10:32:34;9.40;99.90
42031;DHT22;27709;52.036;5.906;2023-02-02T10:38:05;9.30;99.90
42031;DHT22;27709;52.036;5.906;2023-02-02T10:40:45;9.30;99.90
42031;DHT22;27709;52.036;5.906;2023-02-02T10:46:35;9.30;99.90
42031;DHT22;27709;52.036;5.906;2023-02-02T10:57:11;9.30;99.90
42031;DHT22;27709;52.036;5.906;2023-02-02T10:59:58;9.30;99.90
42031;DHT22;27709;52.036;5.906;2023-02-02T11:02:26;9.30;99.90
42031;DHT22;27709;52.036;5.906;2023-02-02T11:04:52;9.30;99.90
42031;DHT22;27709;52.036;5.906;2023-02-02T11:07:36;9.30;99.90
42031;DHT22;27709;52.036;5.906;2023-02-02T11:10:02;9.40;99.90
42031;DHT22;27709;52.036;5.906;2023-02-02T11:12:33;9.40;99.90
42031;DHT22;27709;52.036;5.906;2023-02-02T11:15:03;9.50;99.90
42031;DHT22;27709;52.036;5.906;2023-02-02T11:17:52;9.50;99.90
42031;DHT22;27709;52.036;5.906;2023-02-02T11:20:31;9.50;99.90
42031;DHT22;27709;52.036;5.906;2023-02-02T11:23:04;9.50;99.90
42031;DHT22;27709;52.036;5.906;2023-02-02T11:25:37;9.50;99.90
42031;DHT22;27709;52.036;5.906;2023-02-02T11:28:12;9.50;99.90
42031;DHT22;27709;52.036;5.906;2023-02-02T11:30:45;9.60;99.90
42031;DHT22;27709;52.036;5.906;2023-02-02T11:33:30;9.50;99.90
42031;DHT22;27709;52.036;5.906;2023-02-02T11:36:16;9.50;99.90
42031;DHT22;27709;52.036;5.906;2023-02-02T11:38:42;9.50;99.90
42031;DHT22;27709;52.036;5.906;2023-02-02T11:41:13;9.40;99.90
42031;DHT22;27709;52.036;5.906;2023-02-02T11:43:52;9.40;99.90
42031;DHT22;27709;52.036;5.906;2023-02-02T11:46:28;9.40;99.90
42031;DHT22;27709;52.036;5.906;2023-02-02T11:49:04;9.40;99.90
42031;DHT22;27709;52.036;5.906;2023-02-02T11:51:32;9.40;99.90
42031;DHT22;27709;52.036;5.906;2023-02-02T11:54:13;9.40;99.90
42031;DHT22;27709;52.036;5.906;2023-02-02T11:56:40;9.40;99.90
42031;DHT22;27709;52.036;5.906;2023-02-02T12:04:44;9.40;99.90
42031;DHT22;27709;52.036;5.906;2023-02-02T12:07:28;9.40;99.90
42031;DHT22;27709;52.036;5.906;2023-02-02T12:10:00;9.50;99.90
42031;DHT22;27709;52.036;5.906;2023-02-02T12:12:49;9.50;99.90
42031;DHT22;27709;52.036;5.906;2023-02-02T12:15:22;9.50;99.90
42031;DHT22;27709;52.036;5.906;2023-02-02T12:18:01;9.50;99.90
42031;DHT22;27709;52.036;5.906;2023-02-02T12:23:18;9.50;99.90
42031;DHT22;27709;52.036;5.906;2023-02-02T12:25:54;9.50;99.90
42031;DHT22;27709;52.036;5.906;2023-02-02T12:45:31;9.30;99.90
42031;DHT22;27709;52.036;5.906;2023-02-02T12:51:06;9.30;99.90
42031;DHT22;27709;52.036;5.906;2023-02-02T13:02:27;9.30;99.90
42031;DHT22;27709;52.036;5.906;2023-02-02T13:07:50;9.20;99.90
42031;DHT22;27709;52.036;5.906;2023-02-02T13:10:28;9.20;99.90
42031;DHT22;27709;52.036;5.906;2023-02-02T13:13:00;9.20;99.90
42031;DHT22;27709;52.036;5.906;2023-02-02T13:15:36;9.20;99.90
42031;DHT22;27709;52.036;5.906;2023-02-02T13:18:27;9.20;99.90
42031;DHT22;27709;52.036;5.906;2023-02-02T13:21:01;9.20;99.90
42031;DHT22;27709;52.036;5.906;2023-02-02T13:23:35;9.20;99.90
42031;DHT22;27709;52.036;5.906;2023-02-02T13:26:23;9.10;99.90
42031;DHT22;27709;52.036;5.906;2023-02-02T13:31:41;9.10;99.90
42031;DHT22;27709;52.036;5.906;2023-02-02T13:35:12;9.00;99.90
42031;DHT22;27709;52.036;5.906;2023-02-02T13:40:26;9.00;99.90
42031;DHT22;27709;52.036;5.906;2023-02-02T13:45:42;9.00;99.90
42031;DHT22;27709;52.036;5.906;2023-02-02T13:48:25;9.00;99.90
42031;DHT22;27709;52.036;5.906;2023-02-02T14:02:56;9.00;99.90
42031;DHT22;27709;52.036;5.906;2023-02-02T14:08:04;9.10;99.90
42031;DHT22;27709;52.036;5.906;2023-02-02T14:10:37;9.10;99.90
42031;DHT22;27709;52.036;5.906;2023-02-02T14:13:16;9.10;99.90
42031;DHT22;27709;52.036;5.906;2023-02-02T14:16:05;9.10;99.90
42031;DHT22;27709;52.036;5.906;2023-02-02T14:24:39;9.10;99.90
42031;DHT22;27709;52.036;5.906;2023-02-02T14:32:28;9.00;99.90
42031;DHT22;27709;52.036;5.906;2023-02-02T14:34:55;9.10;99.90
42031;DHT22;27709;52.036;5.906;2023-02-02T14:48:32;9.10;99.90
42031;DHT22;27709;52.036;5.906;2023-02-02T14:51:02;9.10;99.90
42031;DHT22;27709;52.036;5.906;2023-02-02T14:53:39;9.10;99.90
42031;DHT22;27709;52.036;5.906;2023-02-02T14:56:14;9.10;99.90
42031;DHT22;27709;52.036;5.906;2023-02-02T14:58:57;9.10;99.90
42031;DHT22;27709;52.036;5.906;2023-02-02T15:01:27;9.10;99.90
42031;DHT22;27709;52.036;5.906;2023-02-02T15:06:54;9.10;99.90
42031;DHT22;27709;52.036;5.906;2023-02-02T15:09:34;9.10;99.90
42031;DHT22;27709;52.036;5.906;2023-02-02T15:14:47;9.10;99.90
42031;DHT22;27709;52.036;5.906;2023-02-02T15:17:21;9.10;99.90
42031;DHT22;27709;52.036;5.906;2023-02-02T15:22:44;9.10;99.90
42031;DHT22;27709;52.036;5.906;2023-02-02T15:28:45;9.10;99.90
42031;DHT22;27709;52.036;5.906;2023-02-02T15:31:40;9.10;99.90
42031;DHT22;27709;52.036;5.906;2023-02-02T15:34:40;9.10;99.90
42031;DHT22;27709;52.036;5.906;2023-02-02T15:37:29;9.10;99.90
42031;DHT22;27709;52.036;5.906;2023-02-02T15:40:01;9.10;99.90
42031;DHT22;27709;52.036;5.906;2023-02-02T15:42:52;9.10;99.90
42031;DHT22;27709;52.036;5.906;2023-02-02T15:48:29;9.10;99.90
42031;DHT22;27709;52.036;5.906;2023-02-02T15:51:04;9.10;99.90
42031;DHT22;27709;52.036;5.906;2023-02-02T15:56:26;9.00;99.90
42031;DHT22;27709;52.036;5.906;2023-02-02T15:58:56;9.00;99.90
42031;DHT22;27709;52.036;5.906;2023-02-02T16:01:24;8.90;99.90
42031;DHT22;27709;52.036;5.906;2023-02-02T16:04:18;8.90;99.90
42031;DHT22;27709;52.036;5.906;2023-02-02T16:06:49;9.00;99.90
42031;DHT22;27709;52.036;5.906;2023-02-02T16:09:26;9.00;99.90
42031;DHT22;27709;52.036;5.906;2023-02-02T16:11:55;9.00;99.90
42031;DHT22;27709;52.036;5.906;2023-02-02T16:14:24;9.00;99.90
42031;DHT22;27709;52.036;5.906;2023-02-02T16:16:50;9.00;99.90
42031;DHT22;27709;52.036;5.906;2023-02-02T16:19:21;9.00;99.90
42031;DHT22;27709;52.036;5.906;2023-02-02T16:22:09;9.00;99.90
42031;DHT22;27709;52.036;5.906;2023-02-02T16:24:50;9.00;99.90
42031;DHT22;27709;52.036;5.906;2023-02-02T16:27:22;9.00;99.90
42031;DHT22;27709;52.036;5.906;2023-02-02T16:30:04;9.00;99.90
42031;DHT22;27709;52.036;5.906;2023-02-02T16:32:48;9.00;99.90
42031;DHT22;27709;52.036;5.906;2023-02-02T16:35:42;9.00;99.90
42031;DHT22;27709;52.036;5.906;2023-02-02T16:38:34;9.00;99.90
42031;DHT22;27709;52.036;5.906;2023-02-02T16:41:11;9.00;99.90
42031;DHT22;27709;52.036;5.906;2023-02-02T16:43:38;9.00;99.90
42031;DHT22;27709;52.036;5.906;2023-02-02T16:48:59;8.90;99.90
42031;DHT22;27709;52.036;5.906;2023-02-02T16:51:29;9.00;99.90
42031;DHT22;27709;52.036;5.906;2023-02-02T16:56:41;8.90;99.90
42031;DHT22;27709;52.036;5.906;2023-02-02T16:59:27;8.90;99.90
42031;DHT22;27709;52.036;5.906;2023-02-02T17:02:25;8.90;99.90
42031;DHT22;27709;52.036;5.906;2023-02-02T17:04:53;8.90;99.90
42031;DHT22;27709;52.036;5.906;2023-02-02T17:07:22;8.90;99.90
42031;DHT22;27709;52.036;5.906;2023-02-02T17:09:49;8.90;99.90
42031;DHT22;27709;52.036;5.906;2023-02-02T17:12:33;8.90;99.90
42031;DHT22;27709;52.036;5.906;2023-02-02T17:17:45;9.00;99.90
42031;DHT22;27709;52.036;5.906;2023-02-02T17:20:16;8.90;99.90
42031;DHT22;27709;52.036;5.906;2023-02-02T17:22:52;8.90;99.90
42031;DHT22;27709;52.036;5.906;2023-02-02T17:25:25;8.90;99.90
42031;DHT22;27709;52.036;5.906;2023-02-02T17:27:52;8.90;99.90
42031;DHT22;27709;52.036;5.906;2023-02-02T17:30:22;8.90;99.90
42031;DHT22;27709;52.036;5.906;2023-02-02T17:32:51;8.90;99.90
42031;DHT22;27709;52.036;5.906;2023-02-02T17:35:23;8.90;99.90
42031;DHT22;27709;52.036;5.906;2023-02-02T17:37:53;8.90;99.90
42031;DHT22;27709;52.036;5.906;2023-02-02T17:40:27;8.90;99.90
42031;DHT22;27709;52.036;5.906;2023-02-02T17:43:36;8.80;99.90
42031;DHT22;27709;52.036;5.906;2023-02-02T17:46:02;8.90;99.90
42031;DHT22;27709;52.036;5.906;2023-02-02T17:48:28;8.80;99.90
42031;DHT22;27709;52.036;5.906;2023-02-02T17:51:01;8.80;99.90
42031;DHT22;27709;52.036;5.906;2023-02-02T17:53:49;8.80;99.90
42031;DHT22;27709;52.036;5.906;2023-02-02T17:56:17;8.80;99.90
42031;DHT22;27709;52.036;5.906;2023-02-02T17:58:42;8.80;99.90
42031;DHT22;27709;52.036;5.906;2023-02-02T18:01:10;8.80;99.90
42031;DHT22;27709;52.036;5.906;2023-02-02T18:03:37;8.80;99.90
42031;DHT22;27709;52.036;5.906;2023-02-02T18:06:04;8.80;99.90
42031;DHT22;27709;52.036;5.906;2023-02-02T18:08:30;8.80;99.90
42031;DHT22;27709;52.036;5.906;2023-02-02T18:10:56;8.80;99.90
42031;DHT22;27709;52.036;5.906;2023-02-02T18:13:22;8.70;99.90
42031;DHT22;27709;52.036;5.906;2023-02-02T18:15:49;8.70;99.90
42031;DHT22;27709;52.036;5.906;2023-02-02T18:18:15;8.70;99.90
42031;DHT22;27709;52.036;5.906;2023-02-02T18:20:44;8.70;99.90
42031;DHT22;27709;52.036;5.906;2023-02-02T18:23:11;8.70;99.90
42031;DHT22;27709;52.036;5.906;2023-02-02T18:25:37;8.70;99.90
42031;DHT22;27709;52.036;5.906;2023-02-02T18:28:04;8.70;99.90
42031;DHT22;27709;52.036;5.906;2023-02-02T18:30:30;8.70;99.90
42031;DHT22;27709;52.036;5.906;2023-02-02T18:32:56;8.70;99.90
42031;DHT22;27709;52.036;5.906;2023-02-02T18:35:22;8.60;99.90
42031;DHT22;27709;52.036;5.906;2023-02-02T18:37:49;8.60;99.90
42031;DHT22;27709;52.036;5.906;2023-02-02T18:40:17;8.70;99.90
42031;DHT22;27709;52.036;5.906;2023-02-02T18:42:44;8.60;99.90
42031;DHT22;27709;52.036;5.906;2023-02-02T18:45:11;8.60;99.90
42031;DHT22;27709;52.036;5.906;2023-02-02T18:47:37;8.60;99.90
42031;DHT22;27709;52.036;5.906;2023-02-02T18:50:04;8.70;99.90
42031;DHT22;27709;52.036;5.906;2023-02-02T18:52:32;8.70;99.90
42031;DHT22;27709;52.036;5.906;2023-02-02T18:55:03;8.70;99.90